TimeEST,TemperatureF,Dew PointF,Humidity,Sea Level PressureIn,VisibilityMPH,Wind Direction,Wind SpeedMPH,Gust SpeedMPH,PrecipitationIn,Events,Conditions,WindDirDegrees,DateUTC
12:54 AM,60.8,46.4,59,29.95,10.0,South,21.9,32.2,N/A,Rain,Light Rain,190,2012-11-12 05:54:00
1:54 AM,57.0,52.0,83,29.95,9.0,SSW,18.4,31.1,0.01,Rain,Light Rain,200,2012-11-12 06:54:00
2:16 AM,55.4,53.6,94,29.96,3.0,SSW,18.4,27.6,0.05,Rain,Heavy Rain,200,2012-11-12 07:16:00
2:54 AM,55.0,53.1,93,29.96,6.0,SSW,16.1,-,0.11,Rain,Light Rain,200,2012-11-12 07:54:00
3:10 AM,55.4,53.6,94,29.96,5.0,SSW,15.0,-,0.02,Rain,Light Rain,210,2012-11-12 08:10:00
3:34 AM,55.4,53.6,94,29.96,4.0,SSW,13.8,-,0.05,Rain,Light Rain,210,2012-11-12 08:34:00
3:54 AM,52.0,50.0,93,29.96,7.0,West,9.2,-,0.06,Rain,Light Rain,260,2012-11-12 08:54:00
4:54 AM,51.1,50.0,96,29.96,6.0,WSW,8.1,-,0.07,Rain,Light Rain,250,2012-11-12 09:54:00
5:24 AM,51.8,50.0,94,29.96,5.0,SW,5.8,-,0.06,Rain,Rain,230,2012-11-12 10:24:00
5:33 AM,51.8,50.0,94,29.95,6.0,SW,4.6,-,0.08,Rain,Light Rain,220,2012-11-12 10:33:00
5:54 AM,51.1,50.0,96,29.96,4.0,SW,6.9,-,0.10,Rain,Rain,230,2012-11-12 10:54:00
6:28 AM,48.2,48.2,100,29.96,7.0,WNW,20.7,33.4,0.06,Rain,Light Rain,290,2012-11-12 11:28:00
6:41 AM,46.4,44.6,93,29.98,7.0,WNW,12.7,25.3,0.07,Rain,Light Rain,300,2012-11-12 11:41:00
6:54 AM,45.0,44.1,97,29.99,5.0,WNW,13.8,23.0,0.07,Rain,Light Rain,290,2012-11-12 11:54:00
7:54 AM,43.0,42.1,97,30.03,6.0,West,12.7,-,0.04,Rain,Light Rain,270,2012-11-12 12:54:00
8:54 AM,39.9,39.0,97,30.06,8.0,West,19.6,-,0.01,Rain,Light Rain,260,2012-11-12 13:54:00
9:54 AM,37.9,36.0,93,30.09,8.0,West,20.7,-,0.01,Rain,Light Rain,280,2012-11-12 14:54:00
10:04 AM,35.6,33.8,93,30.09,8.0,West,19.6,27.6,0.00,Rain,Light Rain,280,2012-11-12 15:04:00
10:31 AM,33.8,33.8,100,30.11,1.5,West,13.8,-,0.01,Snow,Light Snow,270,2012-11-12 15:31:00
10:54 AM,33.1,33.1,100,30.13,0.8,WSW,11.5,-,0.04,Snow,Light Snow,250,2012-11-12 15:54:00
11:10 AM,33.8,32.0,93,30.12,1.8,West,18.4,-,0.00,Snow,Light Snow,260,2012-11-12 16:10:00
11:15 AM,33.8,32.0,93,30.12,0.8,WSW,16.1,-,0.00,Snow,Light Snow,250,2012-11-12 16:15:00
11:24 AM,33.8,32.0,93,30.11,1.2,WSW,13.8,-,0.01,Snow,Light Snow,250,2012-11-12 16:24:00
11:29 AM,33.8,33.8,100,30.11,4.0,WSW,13.8,-,0.01,Snow,Light Snow,250,2012-11-12 16:29:00
11:54 AM,34.0,32.0,92,30.14,8.0,WSW,18.4,-,0.01,Snow,Light Snow,250,2012-11-12 16:54:00
12:46 PM,33.8,30.2,87,30.12,10.0,WSW,21.9,26.5,0.00,,Overcast,250,2012-11-12 17:46:00
12:54 PM,34.0,30.0,85,30.14,10.0,West,18.4,-,0.00,,Mostly Cloudy,260,2012-11-12 17:54:00
1:54 PM,37.0,28.9,73,30.14,10.0,West,18.4,-,N/A,,Mostly Cloudy,260,2012-11-12 18:54:00
2:31 PM,37.4,30.2,75,30.13,10.0,West,21.9,26.5,N/A,,Scattered Clouds,260,2012-11-12 19:31:00
2:54 PM,37.0,28.0,70,30.16,10.0,West,21.9,27.6,N/A,,Scattered Clouds,280,2012-11-12 19:54:00
3:54 PM,37.0,26.1,65,30.17,10.0,WSW,23.0,28.8,N/A,,Partly Cloudy,250,2012-11-12 20:54:00
4:54 PM,35.1,25.0,67,30.21,10.0,West,18.4,26.5,N/A,,Partly Cloudy,260,2012-11-12 21:54:00
5:54 PM,33.1,25.0,72,30.24,10.0,West,15.0,-,N/A,,Partly Cloudy,260,2012-11-12 22:54:00
6:54 PM,33.1,25.0,72,30.27,10.0,WSW,10.4,-,N/A,,Clear,250,2012-11-12 23:54:00
7:54 PM,33.1,25.0,72,30.30,10.0,WSW,12.7,-,N/A,,Mostly Cloudy,250,2012-11-13 00:54:00
8:54 PM,33.1,26.1,75,30.32,10.0,WSW,10.4,-,N/A,,Mostly Cloudy,240,2012-11-13 01:54:00
9:54 PM,33.1,25.0,72,30.34,10.0,WSW,11.5,-,N/A,,Mostly Cloudy,250,2012-11-13 02:54:00
10:54 PM,34.0,25.0,70,30.35,10.0,WSW,12.7,-,N/A,,Overcast,250,2012-11-13 03:54:00
11:54 PM,34.0,25.0,70,30.36,10.0,West,15.0,-,N/A,,Overcast,260,2012-11-13 04:54:00